createdAt,value
2022-09-17T04:00:56.103Z,11.20
2022-09-17T04:03:27.992Z,11.20
2022-09-17T04:05:59.631Z,11.30
2022-09-17T04:08:31.279Z,11.30
2022-09-17T04:11:02.923Z,11.30
2022-09-17T04:13:34.578Z,11.40
2022-09-17T04:18:39.793Z,11.40
2022-09-17T04:21:11.436Z,11.30
2022-09-17T04:23:43.088Z,11.30
2022-09-17T04:26:14.740Z,11.30
2022-09-17T04:28:46.407Z,11.20
2022-09-17T04:31:19.501Z,11.20
2022-09-17T04:33:51.182Z,11.20
2022-09-17T04:36:22.860Z,11.20
2022-09-17T04:38:54.517Z,11.20
2022-09-17T04:41:26.159Z,11.20
2022-09-17T04:43:57.822Z,11.20
2022-09-17T04:46:30.903Z,11.20
2022-09-17T04:49:02.641Z,11.20
2022-09-17T04:51:34.325Z,11.20
2022-09-17T04:54:06.146Z,11.20
2022-09-17T04:59:09.932Z,10.90
2022-09-17T05:01:43.171Z,11.20
2022-09-17T05:04:14.903Z,11.00
2022-09-17T05:06:46.564Z,11.00
2022-09-17T05:09:18.205Z,11.00
2022-09-17T05:11:49.872Z,11.00
2022-09-17T05:14:21.516Z,10.90
2022-09-17T05:16:54.533Z,10.90
2022-09-17T05:19:26.161Z,10.90
2022-09-17T05:21:58.899Z,10.90
2022-09-17T05:24:30.593Z,10.90
2022-09-17T05:27:02.252Z,11.00
2022-09-17T05:29:33.897Z,11.00
2022-09-17T05:32:07.011Z,10.90
2022-09-17T05:34:38.671Z,11.00
2022-09-17T05:37:10.476Z,11.00
2022-09-17T05:39:42.112Z,11.00
2022-09-17T05:42:13.777Z,11.10
2022-09-17T05:44:45.441Z,11.10
2022-09-17T05:47:18.473Z,11.10
2022-09-17T05:49:50.110Z,11.10
2022-09-17T05:52:21.782Z,11.20
2022-09-17T05:54:53.445Z,11.30
2022-09-17T05:57:25.133Z,11.40
2022-09-17T05:59:56.849Z,11.60
2022-09-17T06:02:29.980Z,11.70
2022-09-17T06:05:01.655Z,12.00
2022-09-17T06:07:35.079Z,12.20
2022-09-17T06:10:07.181Z,12.30
2022-09-17T06:12:38.837Z,12.40
2022-09-17T06:15:11.008Z,12.40
2022-09-17T06:17:44.019Z,12.70
2022-09-17T06:25:19.779Z,14.20
2022-09-17T06:27:51.432Z,14.90
2022-09-17T06:30:23.060Z,15.50
2022-09-17T06:32:56.079Z,16.10
2022-09-17T06:35:27.727Z,16.60
2022-09-17T06:37:59.404Z,17.10
2022-09-17T06:40:31.091Z,17.00
2022-09-17T06:43:02.794Z,16.20
2022-09-17T06:45:34.455Z,16.00
2022-09-17T06:48:07.744Z,15.50
2022-09-17T06:50:42.641Z,15.10
2022-09-17T06:53:14.605Z,14.80
2022-09-17T06:55:46.250Z,14.50
2022-09-17T06:58:17.918Z,14.20
2022-09-17T07:00:49.651Z,13.90
2022-09-17T07:03:23.488Z,13.70
2022-09-17T07:05:55.176Z,13.50
2022-09-17T07:08:26.837Z,13.30
2022-09-17T07:10:58.566Z,13.10
2022-09-17T07:13:30.219Z,12.90
2022-09-17T07:16:02.548Z,12.90
2022-09-17T07:18:35.573Z,13.00
2022-09-17T07:21:07.614Z,13.10
2022-09-17T07:23:39.280Z,13.40
2022-09-17T07:26:12.907Z,13.70
2022-09-17T07:28:44.683Z,14.00
2022-09-17T07:31:16.997Z,14.20
2022-09-17T07:33:50.122Z,14.30
2022-09-17T07:36:21.775Z,14.20
2022-09-17T07:38:53.444Z,14.20
2022-09-17T07:41:25.101Z,14.10
2022-09-17T07:43:56.887Z,14.20
2022-09-17T07:46:28.582Z,14.30
2022-09-17T07:49:01.750Z,14.40
2022-09-17T07:51:33.428Z,14.40
2022-09-17T07:54:05.269Z,14.40
2022-09-17T07:56:36.925Z,14.50
2022-09-17T07:59:09.063Z,14.70
2022-09-17T08:01:40.882Z,15.10
2022-09-17T08:04:13.915Z,15.20
2022-09-17T08:06:45.592Z,15.20
2022-09-17T08:09:17.432Z,15.00
2022-09-17T08:11:55.988Z,15.00
2022-09-17T08:14:29.911Z,15.00
2022-09-17T08:17:01.792Z,15.00
2022-09-17T08:19:34.803Z,15.00
2022-09-17T08:22:06.453Z,15.00
2022-09-17T08:24:38.099Z,15.30
2022-09-17T08:27:09.764Z,15.40
2022-09-17T08:29:41.406Z,15.50
2022-09-17T08:32:13.065Z,15.50
2022-09-17T08:34:46.065Z,15.50
2022-09-17T08:37:17.729Z,15.70
2022-09-17T08:44:58.541Z,15.10
2022-09-17T08:47:34.269Z,15.20
2022-09-17T08:50:08.292Z,15.40
2022-09-17T08:52:59.839Z,15.60
2022-09-17T08:55:36.183Z,15.90
2022-09-17T08:58:33.329Z,15.90
2022-09-17T09:01:11.831Z,16.00
2022-09-17T09:06:20.476Z,15.80
2022-09-17T09:08:54.783Z,15.80
2022-09-17T09:11:27.207Z,15.80
2022-09-17T09:14:00.543Z,15.90
2022-09-17T09:16:33.044Z,16.10
2022-09-17T09:21:46.668Z,15.80
2022-09-17T09:26:58.671Z,15.70
2022-09-17T09:29:36.134Z,15.60
2022-09-17T09:32:17.452Z,15.70
2022-09-17T09:34:49.098Z,15.90
2022-09-17T09:37:24.681Z,16.00
2022-09-17T09:39:58.845Z,16.00
2022-09-17T09:42:31.290Z,15.80
2022-09-17T09:45:11.971Z,15.80
2022-09-17T09:47:50.299Z,15.90
2022-09-17T09:50:42.981Z,15.90
2022-09-17T09:53:26.757Z,16.00
2022-09-17T09:56:05.539Z,16.30
2022-09-17T09:58:38.203Z,16.90
2022-09-17T10:01:12.435Z,16.30
2022-09-17T10:03:44.460Z,16.10
2022-09-17T10:06:16.499Z,16.00
2022-09-17T10:09:10.452Z,15.90
2022-09-17T10:11:42.144Z,15.70
2022-09-17T10:14:14.836Z,15.70
2022-09-17T10:16:46.468Z,15.70
2022-09-17T10:19:19.939Z,15.70
2022-09-17T10:21:51.655Z,15.90
2022-09-17T10:24:25.536Z,16.00
2022-09-17T10:27:00.716Z,15.90
2022-09-17T10:29:32.347Z,16.10
2022-09-17T10:32:04.108Z,16.20
2022-09-17T10:34:44.558Z,15.30
2022-09-17T10:37:32.493Z,16.10
2022-09-17T10:40:29.817Z,16.20
2022-09-17T10:43:25.346Z,16.40
2022-09-17T10:45:58.632Z,16.50
2022-09-17T10:48:32.564Z,16.50
2022-09-17T10:51:04.229Z,16.70
2022-09-17T10:53:51.964Z,16.80
2022-09-17T10:56:26.394Z,17.00
2022-09-17T10:59:02.548Z,17.30
2022-09-17T11:01:49.720Z,17.40
2022-09-17T11:04:25.029Z,17.40
2022-09-17T11:07:06.043Z,17.50
2022-09-17T11:09:42.421Z,17.60
2022-09-17T11:12:24.103Z,17.80
2022-09-17T11:14:58.473Z,17.80
2022-09-17T11:17:58.542Z,17.60
2022-09-17T11:20:37.539Z,17.50
2022-09-17T11:23:23.013Z,17.30
2022-09-17T11:26:00.253Z,17.20
2022-09-17T11:28:39.884Z,17.20
2022-09-17T11:31:23.833Z,17.30
2022-09-17T11:34:10.946Z,17.40
2022-09-17T11:36:46.085Z,17.60
2022-09-17T11:39:21.923Z,17.90
2022-09-17T11:41:53.673Z,17.70
2022-09-17T11:44:28.259Z,18.20
2022-09-17T11:47:02.565Z,17.30
2022-09-17T11:49:35.762Z,17.20
2022-09-17T11:52:08.770Z,16.70
2022-09-17T11:54:42.691Z,16.30
2022-09-17T11:57:16.241Z,16.00
2022-09-17T11:59:50.541Z,15.80
2022-09-17T12:02:23.400Z,15.70
2022-09-17T12:04:57.756Z,15.60
2022-09-17T12:07:34.648Z,15.40
2022-09-17T12:10:18.669Z,15.20
2022-09-17T12:12:53.913Z,14.80
2022-09-17T12:15:27.787Z,14.70
2022-09-17T12:18:30.567Z,14.50
2022-09-17T12:20:57.152Z,14.50
2022-09-17T12:23:34.797Z,14.50
2022-09-17T12:26:13.675Z,14.50
2022-09-17T12:28:49.029Z,14.60
2022-09-17T12:31:24.121Z,14.60
2022-09-17T12:33:57.502Z,14.60
2022-09-17T12:36:38.111Z,14.60
2022-09-17T12:39:37.140Z,14.70
2022-09-17T12:42:16.067Z,14.70
2022-09-17T12:44:55.161Z,14.60
2022-09-17T12:47:42.044Z,14.60
2022-09-17T12:50:18.217Z,14.90
2022-09-17T12:52:57.616Z,15.30
2022-09-17T12:55:40.200Z,15.70
2022-09-17T12:58:19.327Z,15.90
2022-09-17T13:00:53.444Z,16.00
2022-09-17T13:03:27.712Z,16.00
2022-09-17T13:06:23.306Z,15.80
2022-09-17T13:09:24.465Z,15.60
2022-09-17T13:12:06.345Z,15.00
2022-09-17T13:14:44.884Z,14.60
2022-09-17T13:19:50.399Z,13.30
2022-09-17T13:22:22.787Z,12.60
2022-09-17T13:25:01.079Z,12.10
2022-09-17T13:27:32.586Z,11.50
2022-09-17T13:30:04.558Z,11.30
2022-09-17T13:32:42.800Z,10.80
2022-09-17T13:35:32.728Z,10.70
2022-09-17T13:38:05.552Z,10.60
2022-09-17T13:40:37.101Z,10.60
2022-09-17T13:43:09.526Z,10.80
2022-09-17T13:45:59.715Z,10.70
2022-09-17T13:48:31.499Z,10.80
2022-09-17T13:51:36.222Z,11.00
2022-09-17T13:54:09.412Z,11.20
2022-09-17T13:59:13.615Z,11.50
2022-09-17T14:01:55.386Z,11.60
2022-09-17T14:04:47.803Z,11.60
2022-09-17T14:07:34.499Z,11.60
2022-09-17T14:10:23.978Z,11.70
2022-09-17T14:13:10.383Z,11.70
2022-09-17T14:15:57.859Z,11.80
2022-09-17T14:18:36.646Z,11.90
2022-09-17T14:21:14.238Z,12.00
2022-09-17T14:23:47.163Z,12.10
2022-09-17T14:26:35.724Z,12.20
2022-09-17T14:29:10.959Z,12.40
2022-09-17T14:31:43.969Z,12.50
2022-09-17T14:34:18.500Z,12.50
2022-09-17T14:36:50.114Z,12.50
2022-09-17T14:39:24.149Z,12.60
2022-09-17T14:41:55.743Z,12.40
2022-09-17T15:07:49.722Z,12.70
2022-09-17T15:10:21.884Z,12.70
2022-09-17T15:12:55.531Z,12.60
2022-09-17T15:15:27.264Z,12.50
2022-09-17T15:18:00.237Z,12.30
2022-09-17T15:20:31.841Z,12.20
2022-09-17T15:28:19.312Z,11.60
2022-09-17T15:30:51.003Z,10.70
2022-09-17T15:38:30.511Z,12.10
2022-09-17T15:41:24.556Z,12.20
2022-09-17T15:44:28.365Z,12.30
2022-09-17T15:47:31.180Z,12.50
2022-09-17T15:50:17.160Z,12.60
2022-09-17T15:52:48.822Z,12.50
2022-09-17T15:55:34.436Z,12.70
2022-09-17T15:58:19.174Z,12.90
2022-09-17T16:01:06.174Z,13.00
2022-09-17T17:18:14.314Z,12.50
2022-09-17T17:20:45.910Z,12.50
2022-09-17T17:23:18.873Z,12.40
2022-09-17T17:25:50.478Z,12.30
2022-09-17T17:28:22.104Z,12.30
2022-09-17T17:30:53.718Z,12.20
2022-09-17T17:33:25.384Z,12.20
2022-09-17T17:36:01.086Z,12.10
2022-09-17T17:38:37.117Z,12.10
2022-09-17T17:41:09.624Z,12.20
2022-09-17T17:43:41.475Z,12.10
2022-09-17T17:46:13.261Z,12.00
2022-09-17T17:48:44.959Z,11.90
2022-09-17T17:51:16.759Z,11.90
2022-09-17T17:53:49.835Z,11.80
2022-09-17T17:56:21.469Z,11.80
2022-09-17T17:58:54.142Z,11.70
2022-09-17T18:01:26.651Z,11.70
2022-09-17T18:03:58.808Z,11.60
2022-09-17T18:06:30.412Z,11.60
2022-09-17T18:09:03.576Z,11.50
2022-09-17T18:11:35.314Z,11.50
2022-09-17T18:14:06.998Z,11.50
2022-09-17T18:16:38.764Z,11.50
2022-09-17T18:19:10.878Z,10.70
2022-09-17T18:21:42.492Z,11.40
2022-09-17T18:24:15.468Z,11.40
2022-09-17T18:26:47.575Z,11.40
2022-09-17T18:29:19.341Z,11.50
2022-09-17T18:31:51.025Z,11.50
2022-09-17T18:34:22.691Z,11.40
2022-09-17T18:36:54.371Z,11.50
2022-09-17T18:42:18.975Z,11.50
2022-09-17T18:44:50.588Z,11.50
2022-09-17T18:47:22.263Z,11.50
2022-09-17T18:49:53.897Z,11.50
2022-09-17T18:52:25.548Z,11.40
2022-09-17T18:54:58.742Z,11.40
2022-09-17T18:57:30.371Z,11.40
2022-09-17T19:00:02.278Z,11.40
2022-09-17T19:02:33.968Z,11.40
2022-09-17T19:05:06.556Z,11.40
2022-09-17T19:07:38.212Z,11.40
2022-09-17T19:10:11.314Z,11.30
2022-09-17T19:12:42.957Z,11.50
2022-09-17T19:15:14.662Z,11.50
2022-09-17T19:17:46.315Z,11.50
2022-09-17T19:20:17.971Z,11.50
2022-09-17T19:22:49.652Z,11.40
2022-09-17T19:25:22.619Z,11.50
2022-09-17T19:27:54.283Z,11.30
2022-09-17T19:30:25.969Z,11.60
2022-09-17T19:32:57.658Z,11.60
2022-09-17T19:35:29.295Z,11.60
2022-09-17T19:38:00.957Z,11.70
2022-09-17T19:40:33.988Z,11.70
2022-09-17T19:43:05.753Z,11.80
2022-09-17T19:45:37.401Z,11.80
2022-09-17T19:48:09.038Z,11.80
2022-09-17T19:50:50.228Z,11.90
2022-09-17T19:53:22.036Z,12.00
2022-09-17T19:55:55.027Z,12.00
2022-09-17T19:58:26.713Z,12.10
2022-09-17T20:00:58.664Z,12.00
2022-09-17T20:03:30.325Z,12.00
2022-09-17T20:06:02.843Z,12.10
2022-09-17T20:08:39.272Z,12.10
2022-09-17T20:11:14.968Z,12.10
2022-09-17T20:13:46.612Z,12.10
2022-09-17T20:16:19.122Z,12.10
2022-09-17T20:18:50.832Z,12.10
2022-09-17T20:21:23.795Z,12.10
2022-09-17T20:23:55.565Z,12.10
2022-09-17T20:26:28.608Z,12.10
2022-09-17T20:29:00.271Z,12.10
2022-09-17T20:31:32.094Z,12.10
2022-09-17T20:34:04.092Z,12.20
2022-09-17T20:36:35.906Z,12.10
2022-09-17T20:39:14.231Z,12.20
2022-09-17T20:41:49.926Z,12.20
2022-09-17T20:44:21.614Z,12.20
2022-09-17T20:46:53.387Z,12.20
2022-09-17T20:49:25.159Z,12.20
2022-09-17T20:51:56.826Z,12.30
2022-09-17T20:54:28.550Z,12.30
2022-09-17T20:57:01.562Z,12.20
2022-09-17T20:59:33.217Z,12.30
2022-09-17T21:02:05.032Z,12.30
2022-09-17T21:04:36.761Z,12.30
2022-09-17T21:07:08.534Z,12.30
2022-09-17T21:09:40.222Z,12.30
2022-09-17T21:12:13.376Z,12.30
2022-09-17T21:14:45.033Z,12.30
2022-09-17T21:17:16.697Z,12.30
2022-09-17T21:19:48.358Z,12.30
2022-09-17T21:22:20.020Z,12.30
2022-09-17T21:24:51.701Z,12.30
2022-09-17T21:27:24.797Z,12.20
2022-09-17T21:29:56.525Z,12.20
2022-09-17T21:32:28.171Z,12.20
2022-09-17T21:34:59.830Z,12.10
2022-09-17T21:37:31.481Z,12.20
2022-09-17T21:40:03.562Z,12.20
2022-09-17T21:42:36.611Z,12.20
2022-09-17T21:45:08.727Z,12.20
2022-09-17T21:47:40.374Z,12.20
2022-09-17T21:50:12.042Z,12.10
2022-09-17T21:52:43.675Z,12.10
2022-09-17T21:55:15.496Z,12.10
2022-09-17T21:57:48.485Z,12.10
